CheckWX is a tool to help pilots better visualize weather data.  It is not intended as a substitute for an official pre-flight weather briefing.

08:15:38 UTC

ENSG METAR
Sogndal Airport
Sogndal, Norway
Current

26 mins ago

ENSG 220750Z 07006KT 0800 -DZ FG SCT000 BKN015 01/01 Q1031 RMK WIND 3806FT 19014KT
Observed
Feb-22 @ 07:50 UTC
Wind
  • 070° at 6 KTS
Visibility
805 meters
Flight Rules
LIFR
Conditions
Light Drizzle, Fog
Cloud Levels
  • Scattered
  • Broken at 1,500' AGL
Temperature
C / 34°F
Dewpoint
C / 34°F
Humidity
100%
Altimeter
30.44" Hg
Pressure
1030.91 hPa
Previous

56 mins ago

ENSG 220720Z 07005KT 0800 -DZ FG BKN002 01/01 Q1031 RMK WIND 3806FT 19014KT
Observed
Feb-22 @ 07:20 UTC
Wind
  • 070° at 5 KTS
Visibility
805 meters
Flight Rules
LIFR
Conditions
Light Drizzle, Fog
Cloud Levels
  • Broken at 200' AGL
Temperature
C / 34°F
Dewpoint
C / 34°F
Humidity
100%
Altimeter
30.44" Hg
Pressure
1030.91 hPa
Previous

1 hour ago

ENSG 220650Z 07005KT 0800 -DZ FG VV003 01/01 Q1031 RMK WIND 3806FT 19014KT
Observed
Feb-22 @ 06:50 UTC
Wind
  • 070° at 5 KTS
Visibility
805 meters
Flight Rules
LIFR
Conditions
Light Drizzle, Fog
Cloud Levels
  • Vertical visibility at 300' AGL
Temperature
C / 34°F
Dewpoint
C / 34°F
Humidity
100%
Altimeter
30.44" Hg
Pressure
1030.91 hPa